Altenburg, Missouri
Current Conditions -  °F | °C
As of 11:52 AM on Tuesday 21 Oct 2014 (Local Time) from KMDH Reporting Station
Clear Clear  
Wind Chill: 66°   Ceiling: Unl
Heat Index: 66°   Visibility: 10mi
Dew Point: 47°   Wind: 7mph
Humidity: 50%   Direction: NA
Pressure: 30.12"   Gusts: NA
Location:  37.63°N, 89.59°W
Report Text: KMDH 211652Z VRB06KT 10SM CLR 19/08 A3012 RMK AO2 SLP197 T01890083 $
Loading
Personal Weather Stations






























Interactive Weather Map
Tropical Storm Tracking
New forecast layout! Learn more

10-Day Weather Forecast

Advertisements
Track Severe Weather on mobile